sensor_id;sensor_type;location;lat;lon;timestamp;temperature;humidity
75091;DHT22;63674;48.048;8.306;2022-10-04T00:01:51;5.30;94.50
75091;DHT22;63674;48.048;8.306;2022-10-04T00:04:25;5.30;94.80
75091;DHT22;63674;48.048;8.306;2022-10-04T00:07:00;5.30;94.90
75091;DHT22;63674;48.048;8.306;2022-10-04T00:09:35;5.20;94.80
75091;DHT22;63674;48.048;8.306;2022-10-04T00:12:18;5.20;94.80
75091;DHT22;63674;48.048;8.306;2022-10-04T00:14:50;5.20;94.70
75091;DHT22;63674;48.048;8.306;2022-10-04T00:17:22;5.20;94.70
75091;DHT22;63674;48.048;8.306;2022-10-04T00:19:55;5.20;94.70
75091;DHT22;63674;48.048;8.306;2022-10-04T00:22:25;5.20;94.80
75091;DHT22;63674;48.048;8.306;2022-10-04T00:25:19;5.10;95.30
75091;DHT22;63674;48.048;8.306;2022-10-04T00:31:06;5.20;94.70
75091;DHT22;63674;48.048;8.306;2022-10-04T00:34:43;5.20;94.70
75091;DHT22;63674;48.048;8.306;2022-10-04T00:37:12;5.20;94.60
75091;DHT22;63674;48.048;8.306;2022-10-04T00:39:43;5.10;94.50
75091;DHT22;63674;48.048;8.306;2022-10-04T00:42:38;5.10;94.50
75091;DHT22;63674;48.048;8.306;2022-10-04T00:45:22;5.10;94.20
75091;DHT22;63674;48.048;8.306;2022-10-04T00:51:11;5.00;94.50
75091;DHT22;63674;48.048;8.306;2022-10-04T00:54:03;5.00;94.60
75091;DHT22;63674;48.048;8.306;2022-10-04T00:56:41;5.00;94.80
75091;DHT22;63674;48.048;8.306;2022-10-04T00:59:27;4.90;94.60
75091;DHT22;63674;48.048;8.306;2022-10-04T01:02:02;4.80;94.30
75091;DHT22;63674;48.048;8.306;2022-10-04T01:04:40;4.80;94.70
75091;DHT22;63674;48.048;8.306;2022-10-04T01:07:15;4.80;94.90
75091;DHT22;63674;48.048;8.306;2022-10-04T01:09:53;4.80;95.00
75091;DHT22;63674;48.048;8.306;2022-10-04T01:12:32;4.80;94.70
75091;DHT22;63674;48.048;8.306;2022-10-04T01:15:13;4.70;94.60
75091;DHT22;63674;48.048;8.306;2022-10-04T01:18:11;4.70;94.60
75091;DHT22;63674;48.048;8.306;2022-10-04T01:20:51;4.50;94.70
75091;DHT22;63674;48.048;8.306;2022-10-04T01:23:40;4.30;94.90
75091;DHT22;63674;48.048;8.306;2022-10-04T01:26:41;4.10;95.40
75091;DHT22;63674;48.048;8.306;2022-10-04T01:29:13;4.20;95.80
75091;DHT22;63674;48.048;8.306;2022-10-04T01:31:45;4.40;95.80
75091;DHT22;63674;48.048;8.306;2022-10-04T01:34:17;4.50;95.60
75091;DHT22;63674;48.048;8.306;2022-10-04T01:36:48;4.40;95.20
75091;DHT22;63674;48.048;8.306;2022-10-04T01:39:22;4.50;95.30
75091;DHT22;63674;48.048;8.306;2022-10-04T01:41:55;4.50;95.20
75091;DHT22;63674;48.048;8.306;2022-10-04T01:44:30;4.50;95.20
75091;DHT22;63674;48.048;8.306;2022-10-04T01:47:12;4.40;95.30
75091;DHT22;63674;48.048;8.306;2022-10-04T01:49:45;4.30;95.50
75091;DHT22;63674;48.048;8.306;2022-10-04T01:52:17;4.40;95.40
75091;DHT22;63674;48.048;8.306;2022-10-04T01:54:58;4.30;95.40
75091;DHT22;63674;48.048;8.306;2022-10-04T01:57:34;4.20;95.70
75091;DHT22;63674;48.048;8.306;2022-10-04T02:00:06;4.30;95.90
75091;DHT22;63674;48.048;8.306;2022-10-04T02:02:42;4.20;95.60
75091;DHT22;63674;48.048;8.306;2022-10-04T02:05:20;4.20;95.80
75091;DHT22;63674;48.048;8.306;2022-10-04T02:07:55;4.10;95.80
75091;DHT22;63674;48.048;8.306;2022-10-04T02:10:32;4.20;96.10
75091;DHT22;63674;48.048;8.306;2022-10-04T02:13:11;4.30;96.10
75091;DHT22;63674;48.048;8.306;2022-10-04T02:15:45;4.40;95.90
75091;DHT22;63674;48.048;8.306;2022-10-04T02:18:18;4.40;95.60
75091;DHT22;63674;48.048;8.306;2022-10-04T02:20:49;4.40;95.60
75091;DHT22;63674;48.048;8.306;2022-10-04T02:23:21;4.40;95.50
75091;DHT22;63674;48.048;8.306;2022-10-04T02:25:52;4.40;95.70
75091;DHT22;63674;48.048;8.306;2022-10-04T02:28:21;4.40;95.50
75091;DHT22;63674;48.048;8.306;2022-10-04T02:30:51;4.40;95.20
75091;DHT22;63674;48.048;8.306;2022-10-04T02:33:40;4.50;95.40
75091;DHT22;63674;48.048;8.306;2022-10-04T02:36:10;4.40;95.50
75091;DHT22;63674;48.048;8.306;2022-10-04T02:38:43;4.40;95.30
75091;DHT22;63674;48.048;8.306;2022-10-04T02:41:22;4.40;95.20
75091;DHT22;63674;48.048;8.306;2022-10-04T02:43:58;4.40;95.50
75091;DHT22;63674;48.048;8.306;2022-10-04T02:46:35;4.40;95.30
75091;DHT22;63674;48.048;8.306;2022-10-04T02:49:17;4.40;95.10
75091;DHT22;63674;48.048;8.306;2022-10-04T02:51:58;4.30;95.20
75091;DHT22;63674;48.048;8.306;2022-10-04T02:54:34;4.30;94.90
75091;DHT22;63674;48.048;8.306;2022-10-04T02:57:14;4.30;95.20
75091;DHT22;63674;48.048;8.306;2022-10-04T02:59:46;4.20;94.80
75091;DHT22;63674;48.048;8.306;2022-10-04T03:02:24;4.30;95.10
75091;DHT22;63674;48.048;8.306;2022-10-04T03:05:02;4.30;95.10
75091;DHT22;63674;48.048;8.306;2022-10-04T03:07:34;4.30;95.00
75091;DHT22;63674;48.048;8.306;2022-10-04T03:10:06;4.40;94.90
75091;DHT22;63674;48.048;8.306;2022-10-04T03:12:40;4.30;94.80
75091;DHT22;63674;48.048;8.306;2022-10-04T03:15:10;4.30;95.00
75091;DHT22;63674;48.048;8.306;2022-10-04T03:17:40;4.20;94.90
75091;DHT22;63674;48.048;8.306;2022-10-04T03:20:12;4.20;95.20
75091;DHT22;63674;48.048;8.306;2022-10-04T03:22:49;4.20;95.00
75091;DHT22;63674;48.048;8.306;2022-10-04T03:25:25;4.10;95.00
75091;DHT22;63674;48.048;8.306;2022-10-04T03:28:00;4.10;94.80
75091;DHT22;63674;48.048;8.306;2022-10-04T03:30:31;4.00;94.90
75091;DHT22;63674;48.048;8.306;2022-10-04T03:33:01;3.90;95.10
75091;DHT22;63674;48.048;8.306;2022-10-04T03:35:34;3.90;95.10
75091;DHT22;63674;48.048;8.306;2022-10-04T03:38:07;3.90;95.00
75091;DHT22;63674;48.048;8.306;2022-10-04T03:40:42;3.90;95.10
75091;DHT22;63674;48.048;8.306;2022-10-04T03:43:23;3.90;95.10
75091;DHT22;63674;48.048;8.306;2022-10-04T03:45:54;3.90;95.20
75091;DHT22;63674;48.048;8.306;2022-10-04T03:48:34;3.90;95.10
75091;DHT22;63674;48.048;8.306;2022-10-04T03:51:11;4.00;95.10
75091;DHT22;63674;48.048;8.306;2022-10-04T03:53:44;4.00;95.00
75091;DHT22;63674;48.048;8.306;2022-10-04T03:56:18;3.90;94.90
75091;DHT22;63674;48.048;8.306;2022-10-04T03:58:50;3.90;95.10
75091;DHT22;63674;48.048;8.306;2022-10-04T04:01:30;3.90;95.10
75091;DHT22;63674;48.048;8.306;2022-10-04T04:04:14;3.90;95.10
75091;DHT22;63674;48.048;8.306;2022-10-04T04:06:50;3.80;95.30
75091;DHT22;63674;48.048;8.306;2022-10-04T04:09:43;3.80;95.30
75091;DHT22;63674;48.048;8.306;2022-10-04T04:12:16;3.80;95.10
75091;DHT22;63674;48.048;8.306;2022-10-04T04:14:50;3.80;95.30
75091;DHT22;63674;48.048;8.306;2022-10-04T04:17:35;3.80;95.20
75091;DHT22;63674;48.048;8.306;2022-10-04T04:20:20;3.80;95.10
75091;DHT22;63674;48.048;8.306;2022-10-04T04:23:01;3.80;95.20
75091;DHT22;63674;48.048;8.306;2022-10-04T04:25:33;3.80;95.30
75091;DHT22;63674;48.048;8.306;2022-10-04T04:28:14;3.80;95.10
75091;DHT22;63674;48.048;8.306;2022-10-04T04:30:57;3.70;95.00
75091;DHT22;63674;48.048;8.306;2022-10-04T04:33:42;3.60;94.90
75091;DHT22;63674;48.048;8.306;2022-10-04T04:36:14;3.60;95.10
75091;DHT22;63674;48.048;8.306;2022-10-04T04:38:44;3.60;94.90
75091;DHT22;63674;48.048;8.306;2022-10-04T04:41:28;3.50;95.00
75091;DHT22;63674;48.048;8.306;2022-10-04T04:44:01;3.60;94.90
75091;DHT22;63674;48.048;8.306;2022-10-04T04:46:31;3.60;94.80
75091;DHT22;63674;48.048;8.306;2022-10-04T04:49:02;3.60;94.90
75091;DHT22;63674;48.048;8.306;2022-10-04T04:51:32;3.60;94.50
75091;DHT22;63674;48.048;8.306;2022-10-04T04:54:02;3.60;94.90
75091;DHT22;63674;48.048;8.306;2022-10-04T04:56:34;3.60;95.30
75091;DHT22;63674;48.048;8.306;2022-10-04T04:59:03;3.70;95.10
75091;DHT22;63674;48.048;8.306;2022-10-04T05:01:42;3.60;95.00
75091;DHT22;63674;48.048;8.306;2022-10-04T05:04:17;3.60;95.00
75091;DHT22;63674;48.048;8.306;2022-10-04T05:06:58;3.60;94.90
75091;DHT22;63674;48.048;8.306;2022-10-04T05:09:30;3.60;94.90
75091;DHT22;63674;48.048;8.306;2022-10-04T05:12:06;3.60;94.80
75091;DHT22;63674;48.048;8.306;2022-10-04T05:14:44;3.70;94.60
75091;DHT22;63674;48.048;8.306;2022-10-04T05:17:19;3.60;94.70
75091;DHT22;63674;48.048;8.306;2022-10-04T05:19:52;3.50;94.80
75091;DHT22;63674;48.048;8.306;2022-10-04T05:22:26;3.60;95.00
75091;DHT22;63674;48.048;8.306;2022-10-04T05:24:59;3.60;95.00
75091;DHT22;63674;48.048;8.306;2022-10-04T05:27:31;3.60;95.10
75091;DHT22;63674;48.048;8.306;2022-10-04T05:30:07;3.60;94.90
75091;DHT22;63674;48.048;8.306;2022-10-04T05:32:52;3.60;95.00
75091;DHT22;63674;48.048;8.306;2022-10-04T05:35:28;3.60;94.90
75091;DHT22;63674;48.048;8.306;2022-10-04T05:38:08;3.50;95.20
75091;DHT22;63674;48.048;8.306;2022-10-04T05:40:53;3.60;95.20
75091;DHT22;63674;48.048;8.306;2022-10-04T05:43:31;3.60;95.40
75091;DHT22;63674;48.048;8.306;2022-10-04T05:46:17;3.60;95.30
75091;DHT22;63674;48.048;8.306;2022-10-04T05:48:57;3.70;95.20
75091;DHT22;63674;48.048;8.306;2022-10-04T05:51:34;3.60;94.90
75091;DHT22;63674;48.048;8.306;2022-10-04T05:54:18;3.60;94.70
75091;DHT22;63674;48.048;8.306;2022-10-04T05:57:10;3.60;95.00
75091;DHT22;63674;48.048;8.306;2022-10-04T06:00:02;3.60;95.30
75091;DHT22;63674;48.048;8.306;2022-10-04T06:05:50;3.60;95.10
75091;DHT22;63674;48.048;8.306;2022-10-04T06:08:30;3.70;95.10
75091;DHT22;63674;48.048;8.306;2022-10-04T06:11:23;3.70;95.10
75091;DHT22;63674;48.048;8.306;2022-10-04T06:17:46;3.70;95.00
75091;DHT22;63674;48.048;8.306;2022-10-04T06:23:55;3.70;95.00
75091;DHT22;63674;48.048;8.306;2022-10-04T06:26:31;3.80;95.10
75091;DHT22;63674;48.048;8.306;2022-10-04T06:29:10;3.70;94.50
75091;DHT22;63674;48.048;8.306;2022-10-04T06:32:02;3.70;95.00
75091;DHT22;63674;48.048;8.306;2022-10-04T06:34:57;3.80;95.30
75091;DHT22;63674;48.048;8.306;2022-10-04T06:38:05;3.80;95.40
75091;DHT22;63674;48.048;8.306;2022-10-04T06:41:06;3.90;95.10
75091;DHT22;63674;48.048;8.306;2022-10-04T06:44:06;3.80;94.80
75091;DHT22;63674;48.048;8.306;2022-10-04T06:46:55;3.80;95.20
75091;DHT22;63674;48.048;8.306;2022-10-04T06:49:35;3.90;95.20
75091;DHT22;63674;48.048;8.306;2022-10-04T06:52:26;4.00;94.90
75091;DHT22;63674;48.048;8.306;2022-10-04T06:58:34;4.00;94.50
75091;DHT22;63674;48.048;8.306;2022-10-04T07:01:26;4.00;94.20
75091;DHT22;63674;48.048;8.306;2022-10-04T07:04:03;3.90;94.10
75091;DHT22;63674;48.048;8.306;2022-10-04T07:06:47;3.80;94.60
75091;DHT22;63674;48.048;8.306;2022-10-04T07:09:22;3.80;95.00
75091;DHT22;63674;48.048;8.306;2022-10-04T07:12:00;3.90;95.10
75091;DHT22;63674;48.048;8.306;2022-10-04T07:14:36;3.90;95.00
75091;DHT22;63674;48.048;8.306;2022-10-04T07:17:14;3.90;94.80
75091;DHT22;63674;48.048;8.306;2022-10-04T07:19:47;4.00;95.10
75091;DHT22;63674;48.048;8.306;2022-10-04T07:22:24;4.20;95.30
75091;DHT22;63674;48.048;8.306;2022-10-04T07:25:10;4.30;94.90
75091;DHT22;63674;48.048;8.306;2022-10-04T07:27:49;4.50;94.80
75091;DHT22;63674;48.048;8.306;2022-10-04T07:30:46;4.60;94.20
75091;DHT22;63674;48.048;8.306;2022-10-04T07:33:25;4.60;94.10
75091;DHT22;63674;48.048;8.306;2022-10-04T07:36:02;4.70;94.80
75091;DHT22;63674;48.048;8.306;2022-10-04T07:38:37;4.70;94.30
75091;DHT22;63674;48.048;8.306;2022-10-04T07:41:18;4.70;94.20
75091;DHT22;63674;48.048;8.306;2022-10-04T07:43:56;4.70;94.60
75091;DHT22;63674;48.048;8.306;2022-10-04T07:46:42;4.70;94.70
75091;DHT22;63674;48.048;8.306;2022-10-04T07:49:16;4.90;94.70
75091;DHT22;63674;48.048;8.306;2022-10-04T07:52:04;5.00;94.60
75091;DHT22;63674;48.048;8.306;2022-10-04T07:54:49;5.10;94.20
75091;DHT22;63674;48.048;8.306;2022-10-04T07:57:28;5.20;94.00
75091;DHT22;63674;48.048;8.306;2022-10-04T08:00:14;5.30;94.30
75091;DHT22;63674;48.048;8.306;2022-10-04T08:02:57;5.40;94.20
75091;DHT22;63674;48.048;8.306;2022-10-04T08:05:42;5.50;94.00
75091;DHT22;63674;48.048;8.306;2022-10-04T08:08:29;5.60;93.80
75091;DHT22;63674;48.048;8.306;2022-10-04T08:11:15;5.70;94.20
75091;DHT22;63674;48.048;8.306;2022-10-04T08:14:00;5.90;94.60
75091;DHT22;63674;48.048;8.306;2022-10-04T08:16:55;6.10;95.10
75091;DHT22;63674;48.048;8.306;2022-10-04T08:19:53;6.30;95.10
75091;DHT22;63674;48.048;8.306;2022-10-04T08:22:41;7.00;96.50
75091;DHT22;63674;48.048;8.306;2022-10-04T08:25:24;7.60;95.90
75091;DHT22;63674;48.048;8.306;2022-10-04T08:28:02;8.10;95.10
75091;DHT22;63674;48.048;8.306;2022-10-04T08:31:06;8.60;94.20
75091;DHT22;63674;48.048;8.306;2022-10-04T08:33:55;9.10;91.50
75091;DHT22;63674;48.048;8.306;2022-10-04T08:36:43;9.10;90.00
75091;DHT22;63674;48.048;8.306;2022-10-04T08:39:37;9.10;89.60
75091;DHT22;63674;48.048;8.306;2022-10-04T08:45:59;8.90;89.70
75091;DHT22;63674;48.048;8.306;2022-10-04T08:49:18;8.80;90.30
75091;DHT22;63674;48.048;8.306;2022-10-04T08:52:28;8.90;90.40
75091;DHT22;63674;48.048;8.306;2022-10-04T08:55:38;9.10;92.40
75091;DHT22;63674;48.048;8.306;2022-10-04T08:58:43;9.70;91.60
75091;DHT22;63674;48.048;8.306;2022-10-04T09:01:57;10.10;90.30
75091;DHT22;63674;48.048;8.306;2022-10-04T09:04:58;10.00;90.40
75091;DHT22;63674;48.048;8.306;2022-10-04T09:11:21;9.70;92.80
75091;DHT22;63674;48.048;8.306;2022-10-04T09:17:31;10.50;92.70
75091;DHT22;63674;48.048;8.306;2022-10-04T09:20:20;11.00;91.50
75091;DHT22;63674;48.048;8.306;2022-10-04T09:23:17;11.00;91.10
75091;DHT22;63674;48.048;8.306;2022-10-04T09:26:19;11.20;91.80
75091;DHT22;63674;48.048;8.306;2022-10-04T09:48:31;12.10;93.20
75091;DHT22;63674;48.048;8.306;2022-10-04T09:51:28;12.40;92.40
75091;DHT22;63674;48.048;8.306;2022-10-04T09:54:27;12.70;92.10
75091;DHT22;63674;48.048;8.306;2022-10-04T09:57:30;13.00;91.60
75091;DHT22;63674;48.048;8.306;2022-10-04T10:00:19;13.30;90.40
75091;DHT22;63674;48.048;8.306;2022-10-04T10:03:34;13.70;90.00
75091;DHT22;63674;48.048;8.306;2022-10-04T10:06:21;13.90;87.20
75091;DHT22;63674;48.048;8.306;2022-10-04T10:09:08;14.20;81.10
75091;DHT22;63674;48.048;8.306;2022-10-04T10:11:54;14.40;80.50
75091;DHT22;63674;48.048;8.306;2022-10-04T10:15:06;14.50;82.50
75091;DHT22;63674;48.048;8.306;2022-10-04T10:17:42;14.60;79.80
75091;DHT22;63674;48.048;8.306;2022-10-04T10:20:39;14.60;78.80
75091;DHT22;63674;48.048;8.306;2022-10-04T10:23:44;14.80;76.20
75091;DHT22;63674;48.048;8.306;2022-10-04T10:29:38;14.80;76.60
75091;DHT22;63674;48.048;8.306;2022-10-04T10:32:43;14.90;78.40
75091;DHT22;63674;48.048;8.306;2022-10-04T10:36:02;15.10;78.40
75091;DHT22;63674;48.048;8.306;2022-10-04T10:39:18;15.30;75.40
75091;DHT22;63674;48.048;8.306;2022-10-04T10:42:12;15.50;75.10
75091;DHT22;63674;48.048;8.306;2022-10-04T10:48:14;15.80;70.00
75091;DHT22;63674;48.048;8.306;2022-10-04T10:51:01;15.90;70.00
75091;DHT22;63674;48.048;8.306;2022-10-04T10:54:11;16.00;69.80
75091;DHT22;63674;48.048;8.306;2022-10-04T10:57:05;16.20;68.30
75091;DHT22;63674;48.048;8.306;2022-10-04T11:00:12;16.20;67.90
75091;DHT22;63674;48.048;8.306;2022-10-04T11:06:37;16.40;67.00
75091;DHT22;63674;48.048;8.306;2022-10-04T11:09:29;16.50;67.10
75091;DHT22;63674;48.048;8.306;2022-10-04T11:15:49;16.80;66.30
75091;DHT22;63674;48.048;8.306;2022-10-04T11:22:38;16.90;65.40
75091;DHT22;63674;48.048;8.306;2022-10-04T11:25:56;17.00;63.80
75091;DHT22;63674;48.048;8.306;2022-10-04T11:28:38;17.00;61.90
75091;DHT22;63674;48.048;8.306;2022-10-04T11:31:43;17.10;62.50
75091;DHT22;63674;48.048;8.306;2022-10-04T11:35:33;17.20;62.70
75091;DHT22;63674;48.048;8.306;2022-10-04T11:38:22;17.50;59.40
75091;DHT22;63674;48.048;8.306;2022-10-04T11:41:12;17.60;61.50
75091;DHT22;63674;48.048;8.306;2022-10-04T11:44:07;17.60;62.40
75091;DHT22;63674;48.048;8.306;2022-10-04T11:46:53;17.60;59.00
75091;DHT22;63674;48.048;8.306;2022-10-04T11:49:49;17.70;60.20
75091;DHT22;63674;48.048;8.306;2022-10-04T11:56:29;17.80;58.10
75091;DHT22;63674;48.048;8.306;2022-10-04T11:59:16;17.80;61.90
75091;DHT22;63674;48.048;8.306;2022-10-04T12:02:12;17.90;62.80
75091;DHT22;63674;48.048;8.306;2022-10-04T12:05:24;18.00;62.10
75091;DHT22;63674;48.048;8.306;2022-10-04T12:08:22;18.10;61.10
75091;DHT22;63674;48.048;8.306;2022-10-04T12:21:49;18.40;60.90
75091;DHT22;63674;48.048;8.306;2022-10-04T12:24:41;18.50;59.40
75091;DHT22;63674;48.048;8.306;2022-10-04T12:31:23;18.00;58.60
75091;DHT22;63674;48.048;8.306;2022-10-04T12:34:02;17.60;60.10
75091;DHT22;63674;48.048;8.306;2022-10-04T12:39:53;17.80;60.50
75091;DHT22;63674;48.048;8.306;2022-10-04T12:42:35;18.00;59.90
75091;DHT22;63674;48.048;8.306;2022-10-04T12:45:26;18.00;62.30
75091;DHT22;63674;48.048;8.306;2022-10-04T12:48:15;17.90;61.10
75091;DHT22;63674;48.048;8.306;2022-10-04T12:51:08;18.00;61.90
75091;DHT22;63674;48.048;8.306;2022-10-04T12:53:52;18.10;61.10
75091;DHT22;63674;48.048;8.306;2022-10-04T12:56:46;18.10;61.20
75091;DHT22;63674;48.048;8.306;2022-10-04T12:59:40;18.10;61.60
75091;DHT22;63674;48.048;8.306;2022-10-04T13:02:37;18.10;60.50
75091;DHT22;63674;48.048;8.306;2022-10-04T13:05:22;18.00;61.20
75091;DHT22;63674;48.048;8.306;2022-10-04T13:08:04;17.80;61.80
75091;DHT22;63674;48.048;8.306;2022-10-04T13:10:46;17.70;61.00
75091;DHT22;63674;48.048;8.306;2022-10-04T13:14:03;17.70;59.60
75091;DHT22;63674;48.048;8.306;2022-10-04T13:16:54;17.60;62.60
75091;DHT22;63674;48.048;8.306;2022-10-04T13:19:59;17.70;61.30
75091;DHT22;63674;48.048;8.306;2022-10-04T13:22:49;17.90;62.00
75091;DHT22;63674;48.048;8.306;2022-10-04T13:25:37;17.90;60.50
75091;DHT22;63674;48.048;8.306;2022-10-04T13:28:23;17.70;62.20
75091;DHT22;63674;48.048;8.306;2022-10-04T13:31:02;17.80;62.20
75091;DHT22;63674;48.048;8.306;2022-10-04T13:33:44;17.80;61.30
75091;DHT22;63674;48.048;8.306;2022-10-04T13:36:20;17.80;62.90
75091;DHT22;63674;48.048;8.306;2022-10-04T13:39:16;17.80;63.30
75091;DHT22;63674;48.048;8.306;2022-10-04T13:45:31;17.80;60.90
75091;DHT22;63674;48.048;8.306;2022-10-04T13:48:27;17.80;62.80
75091;DHT22;63674;48.048;8.306;2022-10-04T13:51:17;17.80;62.40
75091;DHT22;63674;48.048;8.306;2022-10-04T13:54:05;17.70;60.00
75091;DHT22;63674;48.048;8.306;2022-10-04T13:57:16;17.70;59.80
75091;DHT22;63674;48.048;8.306;2022-10-04T13:59:57;17.70;59.30
75091;DHT22;63674;48.048;8.306;2022-10-04T14:02:58;17.60;61.00
75091;DHT22;63674;48.048;8.306;2022-10-04T14:09:23;17.60;62.50
75091;DHT22;63674;48.048;8.306;2022-10-04T14:12:37;17.60;60.50
75091;DHT22;63674;48.048;8.306;2022-10-04T14:15:49;17.60;61.50
75091;DHT22;63674;48.048;8.306;2022-10-04T14:19:05;17.60;60.60
75091;DHT22;63674;48.048;8.306;2022-10-04T14:22:10;17.60;62.80
75091;DHT22;63674;48.048;8.306;2022-10-04T14:25:21;17.50;61.80
75091;DHT22;63674;48.048;8.306;2022-10-04T14:34:54;17.40;63.00
75091;DHT22;63674;48.048;8.306;2022-10-04T14:41:00;17.50;62.70
75091;DHT22;63674;48.048;8.306;2022-10-04T14:47:14;17.50;64.20
75091;DHT22;63674;48.048;8.306;2022-10-04T14:50:07;17.40;64.80
75091;DHT22;63674;48.048;8.306;2022-10-04T14:53:00;17.30;65.50
75091;DHT22;63674;48.048;8.306;2022-10-04T14:59:14;17.20;67.00
75091;DHT22;63674;48.048;8.306;2022-10-04T15:02:19;17.30;67.60
75091;DHT22;63674;48.048;8.306;2022-10-04T15:05:18;17.50;67.00
75091;DHT22;63674;48.048;8.306;2022-10-04T15:08:23;17.30;68.00
75091;DHT22;63674;48.048;8.306;2022-10-04T15:11:06;17.20;69.30
75091;DHT22;63674;48.048;8.306;2022-10-04T15:13:40;17.20;69.70
75091;DHT22;63674;48.048;8.306;2022-10-04T15:16:32;17.20;70.70
75091;DHT22;63674;48.048;8.306;2022-10-04T15:19:10;17.20;70.20
75091;DHT22;63674;48.048;8.306;2022-10-04T15:22:01;17.10;70.70
75091;DHT22;63674;48.048;8.306;2022-10-04T15:24:46;17.00;70.70
75091;DHT22;63674;48.048;8.306;2022-10-04T15:27:46;17.00;70.50
75091;DHT22;63674;48.048;8.306;2022-10-04T15:30:24;17.10;71.40
75091;DHT22;63674;48.048;8.306;2022-10-04T15:33:16;17.00;71.00
75091;DHT22;63674;48.048;8.306;2022-10-04T15:36:14;16.90;71.30
75091;DHT22;63674;48.048;8.306;2022-10-04T15:39:07;16.80;72.40
75091;DHT22;63674;48.048;8.306;2022-10-04T15:42:09;16.80;71.50
75091;DHT22;63674;48.048;8.306;2022-10-04T15:45:06;16.70;72.00
75091;DHT22;63674;48.048;8.306;2022-10-04T15:48:06;16.60;73.30
75091;DHT22;63674;48.048;8.306;2022-10-04T15:51:01;16.50;73.50
75091;DHT22;63674;48.048;8.306;2022-10-04T15:54:06;16.50;73.20
75091;DHT22;63674;48.048;8.306;2022-10-04T15:56:48;16.40;74.30
75091;DHT22;63674;48.048;8.306;2022-10-04T15:59:34;16.30;74.00
75091;DHT22;63674;48.048;8.306;2022-10-04T16:05:28;16.20;75.50
75091;DHT22;63674;48.048;8.306;2022-10-04T16:11:25;16.10;76.10
75091;DHT22;63674;48.048;8.306;2022-10-04T16:14:44;16.00;78.10
75091;DHT22;63674;48.048;8.306;2022-10-04T16:17:48;15.90;77.00
75091;DHT22;63674;48.048;8.306;2022-10-04T16:20:58;15.80;78.50
75091;DHT22;63674;48.048;8.306;2022-10-04T16:23:34;15.70;78.70
75091;DHT22;63674;48.048;8.306;2022-10-04T16:26:05;15.60;80.60
75091;DHT22;63674;48.048;8.306;2022-10-04T16:28:54;15.50;79.50
75091;DHT22;63674;48.048;8.306;2022-10-04T16:31:52;15.30;79.30
75091;DHT22;63674;48.048;8.306;2022-10-04T16:37:29;14.80;81.40
75091;DHT22;63674;48.048;8.306;2022-10-04T16:40:18;14.60;81.70
75091;DHT22;63674;48.048;8.306;2022-10-04T16:43:02;14.40;82.40
75091;DHT22;63674;48.048;8.306;2022-10-04T16:45:41;14.20;82.90
75091;DHT22;63674;48.048;8.306;2022-10-04T16:48:38;14.00;83.60
75091;DHT22;63674;48.048;8.306;2022-10-04T16:51:38;13.90;82.80
75091;DHT22;63674;48.048;8.306;2022-10-04T16:54:55;13.60;85.50
75091;DHT22;63674;48.048;8.306;2022-10-04T16:57:29;13.40;87.00
75091;DHT22;63674;48.048;8.306;2022-10-04T16:59:59;13.10;87.20
75091;DHT22;63674;48.048;8.306;2022-10-04T17:02:58;13.00;87.80
75091;DHT22;63674;48.048;8.306;2022-10-04T17:06:12;12.80;86.20
75091;DHT22;63674;48.048;8.306;2022-10-04T17:08:51;12.60;90.10
75091;DHT22;63674;48.048;8.306;2022-10-04T17:11:41;12.40;89.80
75091;DHT22;63674;48.048;8.306;2022-10-04T17:17:44;12.10;90.00
75091;DHT22;63674;48.048;8.306;2022-10-04T17:20:24;11.90;90.40
75091;DHT22;63674;48.048;8.306;2022-10-04T17:23:11;11.70;91.40
75091;DHT22;63674;48.048;8.306;2022-10-04T17:26:04;11.60;91.30
75091;DHT22;63674;48.048;8.306;2022-10-04T17:28:47;11.50;91.60
75091;DHT22;63674;48.048;8.306;2022-10-04T17:31:30;11.40;92.00
75091;DHT22;63674;48.048;8.306;2022-10-04T17:34:12;11.40;90.00
75091;DHT22;63674;48.048;8.306;2022-10-04T17:36:49;11.20;91.30
75091;DHT22;63674;48.048;8.306;2022-10-04T17:39:36;11.20;91.50
75091;DHT22;63674;48.048;8.306;2022-10-04T17:42:23;11.00;90.80
75091;DHT22;63674;48.048;8.306;2022-10-04T17:45:24;10.90;91.40
75091;DHT22;63674;48.048;8.306;2022-10-04T17:48:06;10.70;91.90
75091;DHT22;63674;48.048;8.306;2022-10-04T17:50:59;10.60;92.30
75091;DHT22;63674;48.048;8.306;2022-10-04T17:53:53;10.60;91.30
75091;DHT22;63674;48.048;8.306;2022-10-04T17:56:47;10.60;91.40
75091;DHT22;63674;48.048;8.306;2022-10-04T17:59:23;10.50;90.90
75091;DHT22;63674;48.048;8.306;2022-10-04T18:02:01;10.40;91.20
75091;DHT22;63674;48.048;8.306;2022-10-04T18:07:22;10.30;90.10
75091;DHT22;63674;48.048;8.306;2022-10-04T18:09:56;10.30;92.20
75091;DHT22;63674;48.048;8.306;2022-10-04T18:12:30;10.30;91.20
75091;DHT22;63674;48.048;8.306;2022-10-04T18:15:09;10.10;91.90
75091;DHT22;63674;48.048;8.306;2022-10-04T18:17:48;10.00;92.40
75091;DHT22;63674;48.048;8.306;2022-10-04T18:20:25;9.90;93.00
75091;DHT22;63674;48.048;8.306;2022-10-04T18:22:59;9.90;91.70
75091;DHT22;63674;48.048;8.306;2022-10-04T18:25:31;9.80;91.90
75091;DHT22;63674;48.048;8.306;2022-10-04T18:28:02;9.70;92.50
75091;DHT22;63674;48.048;8.306;2022-10-04T18:30:53;9.70;91.30
75091;DHT22;63674;48.048;8.306;2022-10-04T18:33:30;9.60;90.00
75091;DHT22;63674;48.048;8.306;2022-10-04T18:36:16;9.50;92.50
75091;DHT22;63674;48.048;8.306;2022-10-04T18:39:08;9.40;91.60
75091;DHT22;63674;48.048;8.306;2022-10-04T18:41:54;9.40;90.40
75091;DHT22;63674;48.048;8.306;2022-10-04T18:44:29;9.30;90.00
75091;DHT22;63674;48.048;8.306;2022-10-04T18:47:17;9.30;90.10
75091;DHT22;63674;48.048;8.306;2022-10-04T18:50:00;9.20;90.00
75091;DHT22;63674;48.048;8.306;2022-10-04T18:52:38;9.20;91.00
75091;DHT22;63674;48.048;8.306;2022-10-04T18:55:23;9.00;90.70
75091;DHT22;63674;48.048;8.306;2022-10-04T18:58:06;9.00;90.10
75091;DHT22;63674;48.048;8.306;2022-10-04T19:01:11;8.90;90.30
75091;DHT22;63674;48.048;8.306;2022-10-04T19:04:25;8.90;91.60
75091;DHT22;63674;48.048;8.306;2022-10-04T19:07:09;8.70;91.20
75091;DHT22;63674;48.048;8.306;2022-10-04T19:09:58;8.60;93.00
75091;DHT22;63674;48.048;8.306;2022-10-04T19:12:42;8.50;93.00
75091;DHT22;63674;48.048;8.306;2022-10-04T19:15:25;8.50;92.80
75091;DHT22;63674;48.048;8.306;2022-10-04T19:18:31;8.30;93.50
75091;DHT22;63674;48.048;8.306;2022-10-04T19:21:21;8.30;92.80
75091;DHT22;63674;48.048;8.306;2022-10-04T19:24:11;8.40;92.60
75091;DHT22;63674;48.048;8.306;2022-10-04T19:26:56;8.30;93.80
75091;DHT22;63674;48.048;8.306;2022-10-04T19:29:39;8.10;94.30
75091;DHT22;63674;48.048;8.306;2022-10-04T19:32:26;8.10;95.40
75091;DHT22;63674;48.048;8.306;2022-10-04T19:35:11;8.10;94.30
75091;DHT22;63674;48.048;8.306;2022-10-04T19:37:50;8.10;94.70
75091;DHT22;63674;48.048;8.306;2022-10-04T19:40:35;8.20;94.40
75091;DHT22;63674;48.048;8.306;2022-10-04T19:43:19;8.30;94.00
75091;DHT22;63674;48.048;8.306;2022-10-04T19:46:05;8.40;93.90